sensor_id;sensor_type;location;lat;lon;timestamp;P1;durP1;ratioP1;P2;durP2;ratioP2
57023;SDS011;42916;54.346;18.562;2023-03-17T00:00:41;189.50;;;54.30;;
57023;SDS011;42916;54.346;18.562;2023-03-17T00:03:23;180.80;;;54.60;;
57023;SDS011;42916;54.346;18.562;2023-03-17T00:05:52;181.80;;;53.80;;
57023;SDS011;42916;54.346;18.562;2023-03-17T00:08:21;167.50;;;49.50;;
57023;SDS011;42916;54.346;18.562;2023-03-17T00:10:49;177.30;;;48.40;;
57023;SDS011;42916;54.346;18.562;2023-03-17T00:13:16;162.20;;;48.80;;
57023;SDS011;42916;54.346;18.562;2023-03-17T00:15:44;146.90;;;45.50;;
57023;SDS011;42916;54.346;18.562;2023-03-17T00:18:15;160.10;;;45.70;;
57023;SDS011;42916;54.346;18.562;2023-03-17T00:20:43;140.10;;;45.30;;
57023;SDS011;42916;54.346;18.562;2023-03-17T00:23:15;153.60;;;46.20;;
57023;SDS011;42916;54.346;18.562;2023-03-17T00:25:43;156.80;;;46.20;;
57023;SDS011;42916;54.346;18.562;2023-03-17T00:28:17;138.30;;;44.20;;
57023;SDS011;42916;54.346;18.562;2023-03-17T00:30:48;114.10;;;35.90;;
57023;SDS011;42916;54.346;18.562;2023-03-17T00:35:55;100.50;;;30.40;;
57023;SDS011;42916;54.346;18.562;2023-03-17T00:38:24;91.90;;;26.70;;
57023;SDS011;42916;54.346;18.562;2023-03-17T00:40:51;84.70;;;28.70;;
57023;SDS011;42916;54.346;18.562;2023-03-17T00:43:21;78.30;;;27.10;;
57023;SDS011;42916;54.346;18.562;2023-03-17T00:45:48;65.70;;;22.00;;
57023;SDS011;42916;54.346;18.562;2023-03-17T00:48:18;47.20;;;17.50;;
57023;SDS011;42916;54.346;18.562;2023-03-17T00:50:47;55.80;;;21.10;;
57023;SDS011;42916;54.346;18.562;2023-03-17T00:53:16;30.40;;;12.70;;
57023;SDS011;42916;54.346;18.562;2023-03-17T00:55:45;36.80;;;14.10;;
57023;SDS011;42916;54.346;18.562;2023-03-17T00:58:14;39.20;;;14.90;;
57023;SDS011;42916;54.346;18.562;2023-03-17T01:00:45;30.50;;;11.40;;
57023;SDS011;42916;54.346;18.562;2023-03-17T01:03:12;27.30;;;9.70;;
57023;SDS011;42916;54.346;18.562;2023-03-17T01:05:40;23.10;;;9.90;;
57023;SDS011;42916;54.346;18.562;2023-03-17T01:08:08;19.90;;;7.80;;
57023;SDS011;42916;54.346;18.562;2023-03-17T01:10:35;21.70;;;8.30;;
57023;SDS011;42916;54.346;18.562;2023-03-17T01:13:03;21.40;;;8.00;;
57023;SDS011;42916;54.346;18.562;2023-03-17T01:15:33;16.70;;;7.90;;
57023;SDS011;42916;54.346;18.562;2023-03-17T01:18:00;19.20;;;7.90;;
57023;SDS011;42916;54.346;18.562;2023-03-17T01:20:30;16.10;;;7.20;;
57023;SDS011;42916;54.346;18.562;2023-03-17T01:22:58;16.70;;;6.80;;
57023;SDS011;42916;54.346;18.562;2023-03-17T01:25:27;15.30;;;5.80;;
57023;SDS011;42916;54.346;18.562;2023-03-17T01:27:55;14.80;;;5.70;;
57023;SDS011;42916;54.346;18.562;2023-03-17T01:32:56;15.50;;;5.80;;
57023;SDS011;42916;54.346;18.562;2023-03-17T01:35:25;12.20;;;5.60;;
57023;SDS011;42916;54.346;18.562;2023-03-17T01:37:54;15.10;;;5.60;;
57023;SDS011;42916;54.346;18.562;2023-03-17T01:40:24;14.10;;;5.50;;
57023;SDS011;42916;54.346;18.562;2023-03-17T01:42:58;11.80;;;5.70;;
57023;SDS011;42916;54.346;18.562;2023-03-17T01:51:12;18.50;;;6.50;;
57023;SDS011;42916;54.346;18.562;2023-03-17T01:53:44;14.40;;;6.70;;
57023;SDS011;42916;54.346;18.562;2023-03-17T01:56:14;20.10;;;6.90;;
57023;SDS011;42916;54.346;18.562;2023-03-17T01:58:42;15.10;;;7.40;;
57023;SDS011;42916;54.346;18.562;2023-03-17T02:01:12;12.90;;;6.80;;
57023;SDS011;42916;54.346;18.562;2023-03-17T02:03:40;14.80;;;7.10;;
57023;SDS011;42916;54.346;18.562;2023-03-17T02:06:07;19.70;;;7.40;;
57023;SDS011;42916;54.346;18.562;2023-03-17T02:08:35;17.00;;;7.00;;
57023;SDS011;42916;54.346;18.562;2023-03-17T02:11:02;16.40;;;6.60;;
57023;SDS011;42916;54.346;18.562;2023-03-17T02:13:30;19.30;;;7.50;;
57023;SDS011;42916;54.346;18.562;2023-03-17T02:15:58;14.70;;;7.40;;
57023;SDS011;42916;54.346;18.562;2023-03-17T02:18:25;16.60;;;7.40;;
57023;SDS011;42916;54.346;18.562;2023-03-17T02:21:23;21.80;;;9.10;;
57023;SDS011;42916;54.346;18.562;2023-03-17T02:24:02;20.10;;;7.80;;
57023;SDS011;42916;54.346;18.562;2023-03-17T02:26:35;15.90;;;7.20;;
57023;SDS011;42916;54.346;18.562;2023-03-17T02:29:04;18.10;;;7.70;;
57023;SDS011;42916;54.346;18.562;2023-03-17T02:31:32;16.40;;;8.10;;
57023;SDS011;42916;54.346;18.562;2023-03-17T02:34:00;17.40;;;8.10;;
57023;SDS011;42916;54.346;18.562;2023-03-17T02:36:27;21.00;;;8.90;;
57023;SDS011;42916;54.346;18.562;2023-03-17T02:38:54;20.00;;;9.00;;
57023;SDS011;42916;54.346;18.562;2023-03-17T02:41:22;15.30;;;8.10;;
57023;SDS011;42916;54.346;18.562;2023-03-17T02:43:49;19.60;;;7.70;;
57023;SDS011;42916;54.346;18.562;2023-03-17T02:46:20;17.20;;;7.90;;
57023;SDS011;42916;54.346;18.562;2023-03-17T02:48:47;15.60;;;8.20;;
57023;SDS011;42916;54.346;18.562;2023-03-17T02:51:15;19.50;;;7.30;;
57023;SDS011;42916;54.346;18.562;2023-03-17T02:53:42;15.00;;;7.60;;
57023;SDS011;42916;54.346;18.562;2023-03-17T02:56:09;15.20;;;8.00;;
57023;SDS011;42916;54.346;18.562;2023-03-17T02:58:35;18.20;;;6.50;;
57023;SDS011;42916;54.346;18.562;2023-03-17T03:01:02;14.80;;;7.40;;
57023;SDS011;42916;54.346;18.562;2023-03-17T03:03:29;17.40;;;7.80;;
57023;SDS011;42916;54.346;18.562;2023-03-17T03:05:56;14.40;;;7.40;;
57023;SDS011;42916;54.346;18.562;2023-03-17T03:08:24;15.80;;;7.40;;
57023;SDS011;42916;54.346;18.562;2023-03-17T03:10:54;17.40;;;7.10;;
57023;SDS011;42916;54.346;18.562;2023-03-17T03:13:21;13.70;;;7.10;;
57023;SDS011;42916;54.346;18.562;2023-03-17T03:15:48;24.60;;;8.50;;
57023;SDS011;42916;54.346;18.562;2023-03-17T03:18:15;22.90;;;8.20;;
57023;SDS011;42916;54.346;18.562;2023-03-17T03:20:42;19.40;;;8.20;;
57023;SDS011;42916;54.346;18.562;2023-03-17T03:23:10;19.00;;;8.60;;
57023;SDS011;42916;54.346;18.562;2023-03-17T03:25:37;17.70;;;7.70;;
57023;SDS011;42916;54.346;18.562;2023-03-17T03:28:05;18.20;;;7.30;;
57023;SDS011;42916;54.346;18.562;2023-03-17T03:30:33;16.30;;;7.50;;
57023;SDS011;42916;54.346;18.562;2023-03-17T03:33:02;15.60;;;7.00;;
57023;SDS011;42916;54.346;18.562;2023-03-17T03:35:29;14.40;;;6.80;;
57023;SDS011;42916;54.346;18.562;2023-03-17T03:37:56;18.40;;;8.00;;
57023;SDS011;42916;54.346;18.562;2023-03-17T03:40:23;12.80;;;7.50;;
57023;SDS011;42916;54.346;18.562;2023-03-17T03:42:50;14.20;;;7.40;;
57023;SDS011;42916;54.346;18.562;2023-03-17T03:45:17;16.40;;;8.30;;
57023;SDS011;42916;54.346;18.562;2023-03-17T03:47:44;17.10;;;8.10;;
57023;SDS011;42916;54.346;18.562;2023-03-17T03:50:11;16.50;;;7.50;;
57023;SDS011;42916;54.346;18.562;2023-03-17T03:52:39;17.50;;;7.30;;
57023;SDS011;42916;54.346;18.562;2023-03-17T03:55:06;17.80;;;7.60;;
57023;SDS011;42916;54.346;18.562;2023-03-17T03:57:34;20.00;;;7.70;;
57023;SDS011;42916;54.346;18.562;2023-03-17T04:00:02;17.00;;;7.20;;
57023;SDS011;42916;54.346;18.562;2023-03-17T04:02:39;18.10;;;7.90;;
57023;SDS011;42916;54.346;18.562;2023-03-17T04:05:07;17.30;;;7.20;;
57023;SDS011;42916;54.346;18.562;2023-03-17T04:07:35;20.20;;;8.00;;
57023;SDS011;42916;54.346;18.562;2023-03-17T04:10:02;19.10;;;7.70;;
57023;SDS011;42916;54.346;18.562;2023-03-17T04:12:29;15.30;;;6.90;;
57023;SDS011;42916;54.346;18.562;2023-03-17T04:14:56;18.70;;;8.30;;
57023;SDS011;42916;54.346;18.562;2023-03-17T04:17:23;17.10;;;7.90;;
57023;SDS011;42916;54.346;18.562;2023-03-17T04:19:50;15.40;;;7.50;;
57023;SDS011;42916;54.346;18.562;2023-03-17T04:22:17;23.00;;;8.90;;
57023;SDS011;42916;54.346;18.562;2023-03-17T04:24:44;15.90;;;7.90;;
57023;SDS011;42916;54.346;18.562;2023-03-17T04:27:11;18.30;;;8.60;;
57023;SDS011;42916;54.346;18.562;2023-03-17T04:29:40;18.80;;;8.80;;
57023;SDS011;42916;54.346;18.562;2023-03-17T04:32:08;16.70;;;9.30;;
57023;SDS011;42916;54.346;18.562;2023-03-17T04:34:38;19.30;;;7.80;;
57023;SDS011;42916;54.346;18.562;2023-03-17T04:37:07;17.60;;;9.20;;
57023;SDS011;42916;54.346;18.562;2023-03-17T04:39:35;17.70;;;8.70;;
57023;SDS011;42916;54.346;18.562;2023-03-17T04:42:03;21.20;;;9.30;;
57023;SDS011;42916;54.346;18.562;2023-03-17T04:44:32;25.90;;;10.30;;
57023;SDS011;42916;54.346;18.562;2023-03-17T04:46:59;22.30;;;9.90;;
57023;SDS011;42916;54.346;18.562;2023-03-17T04:49:26;23.80;;;10.20;;
57023;SDS011;42916;54.346;18.562;2023-03-17T04:51:53;25.40;;;9.90;;
57023;SDS011;42916;54.346;18.562;2023-03-17T04:54:20;22.80;;;9.70;;
57023;SDS011;42916;54.346;18.562;2023-03-17T04:56:47;20.30;;;9.30;;
57023;SDS011;42916;54.346;18.562;2023-03-17T04:59:14;20.50;;;9.80;;
57023;SDS011;42916;54.346;18.562;2023-03-17T05:01:41;19.60;;;9.90;;
57023;SDS011;42916;54.346;18.562;2023-03-17T05:04:08;19.00;;;9.20;;
57023;SDS011;42916;54.346;18.562;2023-03-17T05:06:35;18.50;;;9.30;;
57023;SDS011;42916;54.346;18.562;2023-03-17T05:09:02;21.50;;;10.80;;
57023;SDS011;42916;54.346;18.562;2023-03-17T05:11:30;16.40;;;8.70;;
57023;SDS011;42916;54.346;18.562;2023-03-17T05:13:57;20.50;;;9.90;;
57023;SDS011;42916;54.346;18.562;2023-03-17T05:16:24;24.70;;;11.30;;
57023;SDS011;42916;54.346;18.562;2023-03-17T05:18:51;20.10;;;11.00;;
57023;SDS011;42916;54.346;18.562;2023-03-17T05:21:17;23.40;;;10.40;;
57023;SDS011;42916;54.346;18.562;2023-03-17T05:23:44;29.70;;;13.10;;
57023;SDS011;42916;54.346;18.562;2023-03-17T05:26:11;26.00;;;12.90;;
57023;SDS011;42916;54.346;18.562;2023-03-17T05:28:38;28.10;;;12.60;;
57023;SDS011;42916;54.346;18.562;2023-03-17T05:31:05;28.00;;;13.30;;
57023;SDS011;42916;54.346;18.562;2023-03-17T05:33:32;32.30;;;16.30;;
57023;SDS011;42916;54.346;18.562;2023-03-17T05:35:58;25.50;;;14.40;;
57023;SDS011;42916;54.346;18.562;2023-03-17T05:38:25;26.40;;;13.80;;
57023;SDS011;42916;54.346;18.562;2023-03-17T05:40:52;28.80;;;13.70;;
57023;SDS011;42916;54.346;18.562;2023-03-17T05:43:20;29.30;;;14.70;;
57023;SDS011;42916;54.346;18.562;2023-03-17T05:45:47;27.20;;;14.00;;
57023;SDS011;42916;54.346;18.562;2023-03-17T05:48:15;28.20;;;14.80;;
57023;SDS011;42916;54.346;18.562;2023-03-17T05:50:43;33.70;;;16.10;;
57023;SDS011;42916;54.346;18.562;2023-03-17T05:53:10;28.30;;;15.90;;
57023;SDS011;42916;54.346;18.562;2023-03-17T05:55:37;34.00;;;16.10;;
57023;SDS011;42916;54.346;18.562;2023-03-17T05:58:04;37.70;;;17.30;;
57023;SDS011;42916;54.346;18.562;2023-03-17T06:00:32;29.70;;;15.20;;
57023;SDS011;42916;54.346;18.562;2023-03-17T06:02:59;31.90;;;15.50;;
57023;SDS011;42916;54.346;18.562;2023-03-17T06:05:27;34.50;;;16.10;;
57023;SDS011;42916;54.346;18.562;2023-03-17T06:07:54;33.90;;;16.10;;
57023;SDS011;42916;54.346;18.562;2023-03-17T06:10:21;34.10;;;16.80;;
57023;SDS011;42916;54.346;18.562;2023-03-17T06:12:49;34.50;;;16.40;;
57023;SDS011;42916;54.346;18.562;2023-03-17T06:15:15;35.30;;;16.60;;
57023;SDS011;42916;54.346;18.562;2023-03-17T06:17:42;35.40;;;16.20;;
57023;SDS011;42916;54.346;18.562;2023-03-17T06:20:10;35.80;;;16.40;;
57023;SDS011;42916;54.346;18.562;2023-03-17T06:22:38;32.90;;;14.20;;
57023;SDS011;42916;54.346;18.562;2023-03-17T06:25:05;34.30;;;16.70;;
57023;SDS011;42916;54.346;18.562;2023-03-17T06:27:33;28.60;;;14.90;;
57023;SDS011;42916;54.346;18.562;2023-03-17T06:30:00;34.10;;;16.20;;
57023;SDS011;42916;54.346;18.562;2023-03-17T06:32:27;32.10;;;15.90;;
57023;SDS011;42916;54.346;18.562;2023-03-17T06:34:56;27.10;;;13.70;;
57023;SDS011;42916;54.346;18.562;2023-03-17T06:37:23;35.80;;;17.40;;
57023;SDS011;42916;54.346;18.562;2023-03-17T06:39:50;40.10;;;18.00;;
57023;SDS011;42916;54.346;18.562;2023-03-17T06:42:17;33.60;;;17.10;;
57023;SDS011;42916;54.346;18.562;2023-03-17T06:44:44;30.40;;;16.60;;
57023;SDS011;42916;54.346;18.562;2023-03-17T06:47:11;32.90;;;16.70;;
57023;SDS011;42916;54.346;18.562;2023-03-17T06:49:38;35.70;;;18.20;;
57023;SDS011;42916;54.346;18.562;2023-03-17T06:52:06;37.30;;;16.90;;
57023;SDS011;42916;54.346;18.562;2023-03-17T06:54:34;33.20;;;17.10;;
57023;SDS011;42916;54.346;18.562;2023-03-17T06:57:01;36.70;;;17.10;;
57023;SDS011;42916;54.346;18.562;2023-03-17T06:59:29;34.30;;;18.70;;
57023;SDS011;42916;54.346;18.562;2023-03-17T07:01:56;33.80;;;17.70;;
57023;SDS011;42916;54.346;18.562;2023-03-17T07:04:24;33.60;;;17.30;;
57023;SDS011;42916;54.346;18.562;2023-03-17T07:06:50;34.50;;;16.70;;
57023;SDS011;42916;54.346;18.562;2023-03-17T07:09:17;32.80;;;17.80;;
57023;SDS011;42916;54.346;18.562;2023-03-17T07:11:44;35.40;;;17.60;;
57023;SDS011;42916;54.346;18.562;2023-03-17T07:14:11;31.20;;;16.70;;
57023;SDS011;42916;54.346;18.562;2023-03-17T07:16:39;36.60;;;18.60;;
57023;SDS011;42916;54.346;18.562;2023-03-17T07:19:05;30.60;;;15.20;;
57023;SDS011;42916;54.346;18.562;2023-03-17T07:21:32;31.80;;;16.80;;
57023;SDS011;42916;54.346;18.562;2023-03-17T07:23:59;29.60;;;15.30;;
57023;SDS011;42916;54.346;18.562;2023-03-17T07:26:26;31.00;;;16.40;;
57023;SDS011;42916;54.346;18.562;2023-03-17T07:28:53;29.10;;;14.90;;
57023;SDS011;42916;54.346;18.562;2023-03-17T07:31:21;32.40;;;16.60;;
57023;SDS011;42916;54.346;18.562;2023-03-17T07:33:48;27.90;;;15.90;;
57023;SDS011;42916;54.346;18.562;2023-03-17T07:36:15;31.70;;;16.30;;
57023;SDS011;42916;54.346;18.562;2023-03-17T07:38:42;30.40;;;16.90;;
57023;SDS011;42916;54.346;18.562;2023-03-17T07:41:09;28.90;;;17.10;;
57023;SDS011;42916;54.346;18.562;2023-03-17T07:43:36;26.40;;;14.00;;
57023;SDS011;42916;54.346;18.562;2023-03-17T07:46:03;29.00;;;15.10;;
57023;SDS011;42916;54.346;18.562;2023-03-17T07:48:31;32.20;;;16.80;;
57023;SDS011;42916;54.346;18.562;2023-03-17T07:50:58;31.40;;;15.30;;
57023;SDS011;42916;54.346;18.562;2023-03-17T07:53:25;30.40;;;15.50;;
57023;SDS011;42916;54.346;18.562;2023-03-17T07:55:52;27.00;;;15.60;;
57023;SDS011;42916;54.346;18.562;2023-03-17T07:58:19;28.10;;;14.40;;
57023;SDS011;42916;54.346;18.562;2023-03-17T08:00:47;29.10;;;15.30;;
57023;SDS011;42916;54.346;18.562;2023-03-17T08:03:14;26.20;;;12.70;;
57023;SDS011;42916;54.346;18.562;2023-03-17T08:05:41;26.60;;;15.00;;
57023;SDS011;42916;54.346;18.562;2023-03-17T08:08:07;26.60;;;15.50;;
57023;SDS011;42916;54.346;18.562;2023-03-17T08:10:35;30.40;;;14.80;;
57023;SDS011;42916;54.346;18.562;2023-03-17T08:13:02;30.70;;;15.90;;
57023;SDS011;42916;54.346;18.562;2023-03-17T08:15:29;28.80;;;14.90;;
57023;SDS011;42916;54.346;18.562;2023-03-17T08:17:56;32.80;;;16.80;;
57023;SDS011;42916;54.346;18.562;2023-03-17T08:20:23;24.10;;;15.20;;
57023;SDS011;42916;54.346;18.562;2023-03-17T08:22:50;28.80;;;15.50;;
57023;SDS011;42916;54.346;18.562;2023-03-17T08:25:17;27.60;;;16.30;;
57023;SDS011;42916;54.346;18.562;2023-03-17T08:27:43;28.30;;;15.30;;
57023;SDS011;42916;54.346;18.562;2023-03-17T08:30:10;26.90;;;14.00;;
57023;SDS011;42916;54.346;18.562;2023-03-17T08:32:38;32.10;;;15.80;;
57023;SDS011;42916;54.346;18.562;2023-03-17T08:35:04;31.80;;;14.70;;
57023;SDS011;42916;54.346;18.562;2023-03-17T08:37:39;24.40;;;13.80;;
57023;SDS011;42916;54.346;18.562;2023-03-17T08:40:14;26.30;;;14.10;;
57023;SDS011;42916;54.346;18.562;2023-03-17T08:45:10;26.00;;;14.00;;
57023;SDS011;42916;54.346;18.562;2023-03-17T08:47:38;25.10;;;14.10;;
57023;SDS011;42916;54.346;18.562;2023-03-17T08:50:06;25.40;;;13.80;;
57023;SDS011;42916;54.346;18.562;2023-03-17T08:52:36;28.90;;;14.10;;
57023;SDS011;42916;54.346;18.562;2023-03-17T08:55:03;29.40;;;14.00;;
57023;SDS011;42916;54.346;18.562;2023-03-17T08:57:32;23.50;;;13.00;;
57023;SDS011;42916;54.346;18.562;2023-03-17T08:59:58;23.20;;;13.10;;
57023;SDS011;42916;54.346;18.562;2023-03-17T09:02:26;26.30;;;14.30;;
57023;SDS011;42916;54.346;18.562;2023-03-17T09:04:53;23.10;;;13.20;;
57023;SDS011;42916;54.346;18.562;2023-03-17T09:07:20;30.50;;;14.20;;
57023;SDS011;42916;54.346;18.562;2023-03-17T09:09:47;26.00;;;14.20;;
57023;SDS011;42916;54.346;18.562;2023-03-17T09:12:14;23.60;;;13.20;;
57023;SDS011;42916;54.346;18.562;2023-03-17T09:14:41;22.90;;;13.40;;
57023;SDS011;42916;54.346;18.562;2023-03-17T09:17:08;27.00;;;13.60;;
57023;SDS011;42916;54.346;18.562;2023-03-17T09:19:34;24.30;;;12.50;;
57023;SDS011;42916;54.346;18.562;2023-03-17T09:22:01;25.10;;;13.10;;
57023;SDS011;42916;54.346;18.562;2023-03-17T09:24:28;21.70;;;13.50;;
57023;SDS011;42916;54.346;18.562;2023-03-17T09:26:55;25.30;;;12.10;;
57023;SDS011;42916;54.346;18.562;2023-03-17T09:29:25;23.80;;;12.50;;
57023;SDS011;42916;54.346;18.562;2023-03-17T09:31:53;23.30;;;13.00;;
57023;SDS011;42916;54.346;18.562;2023-03-17T09:34:22;22.20;;;11.90;;
57023;SDS011;42916;54.346;18.562;2023-03-17T09:36:52;22.70;;;13.10;;
57023;SDS011;42916;54.346;18.562;2023-03-17T09:39:19;26.20;;;13.90;;
57023;SDS011;42916;54.346;18.562;2023-03-17T09:42:11;23.40;;;13.40;;
57023;SDS011;42916;54.346;18.562;2023-03-17T09:50:08;26.30;;;13.80;;
57023;SDS011;42916;54.346;18.562;2023-03-17T09:52:39;22.70;;;13.70;;
57023;SDS011;42916;54.346;18.562;2023-03-17T09:55:09;24.60;;;13.80;;
57023;SDS011;42916;54.346;18.562;2023-03-17T09:57:43;26.40;;;13.40;;
57023;SDS011;42916;54.346;18.562;2023-03-17T10:00:12;27.00;;;13.90;;
57023;SDS011;42916;54.346;18.562;2023-03-17T10:02:43;23.60;;;14.20;;
57023;SDS011;42916;54.346;18.562;2023-03-17T10:07:49;23.50;;;12.40;;
57023;SDS011;42916;54.346;18.562;2023-03-17T10:18:18;21.90;;;11.20;;
57023;SDS011;42916;54.346;18.562;2023-03-17T10:21:02;20.90;;;10.90;;
57023;SDS011;42916;54.346;18.562;2023-03-17T10:23:32;19.50;;;11.30;;
57023;SDS011;42916;54.346;18.562;2023-03-17T10:26:05;19.30;;;11.10;;
57023;SDS011;42916;54.346;18.562;2023-03-17T10:28:37;17.90;;;10.90;;
57023;SDS011;42916;54.346;18.562;2023-03-17T10:31:13;18.50;;;10.10;;
57023;SDS011;42916;54.346;18.562;2023-03-17T10:33:43;19.30;;;10.70;;
57023;SDS011;42916;54.346;18.562;2023-03-17T10:36:14;20.80;;;10.10;;
57023;SDS011;42916;54.346;18.562;2023-03-17T10:38:52;16.10;;;9.50;;
57023;SDS011;42916;54.346;18.562;2023-03-17T10:41:21;16.10;;;9.40;;
57023;SDS011;42916;54.346;18.562;2023-03-17T10:43:48;17.60;;;9.50;;
57023;SDS011;42916;54.346;18.562;2023-03-17T10:46:22;15.90;;;9.70;;
57023;SDS011;42916;54.346;18.562;2023-03-17T10:48:52;18.60;;;10.00;;
57023;SDS011;42916;54.346;18.562;2023-03-17T10:51:29;17.30;;;9.30;;
57023;SDS011;42916;54.346;18.562;2023-03-17T10:54:01;16.20;;;9.20;;
57023;SDS011;42916;54.346;18.562;2023-03-17T10:56:35;14.40;;;7.70;;
57023;SDS011;42916;54.346;18.562;2023-03-17T10:59:06;12.80;;;8.30;;
57023;SDS011;42916;54.346;18.562;2023-03-17T11:01:43;15.90;;;9.40;;
57023;SDS011;42916;54.346;18.562;2023-03-17T11:04:34;15.70;;;8.30;;
57023;SDS011;42916;54.346;18.562;2023-03-17T11:07:08;15.90;;;8.00;;
57023;SDS011;42916;54.346;18.562;2023-03-17T11:09:42;17.40;;;9.30;;
57023;SDS011;42916;54.346;18.562;2023-03-17T11:12:20;15.20;;;9.30;;
57023;SDS011;42916;54.346;18.562;2023-03-17T11:14:54;16.60;;;9.20;;
57023;SDS011;42916;54.346;18.562;2023-03-17T11:17:30;16.30;;;8.70;;
57023;SDS011;42916;54.346;18.562;2023-03-17T11:20:09;15.30;;;8.80;;
57023;SDS011;42916;54.346;18.562;2023-03-17T11:23:03;16.00;;;8.80;;
57023;SDS011;42916;54.346;18.562;2023-03-17T11:25:38;14.80;;;8.50;;
57023;SDS011;42916;54.346;18.562;2023-03-17T11:28:18;15.00;;;8.00;;
57023;SDS011;42916;54.346;18.562;2023-03-17T11:34:02;16.70;;;9.30;;
57023;SDS011;42916;54.346;18.562;2023-03-17T11:39:13;13.60;;;7.60;;
57023;SDS011;42916;54.346;18.562;2023-03-17T11:41:50;13.70;;;6.90;;
57023;SDS011;42916;54.346;18.562;2023-03-17T11:44:34;13.80;;;8.10;;
57023;SDS011;42916;54.346;18.562;2023-03-17T11:50:11;19.00;;;8.40;;
57023;SDS011;42916;54.346;18.562;2023-03-17T11:55:53;15.20;;;8.60;;
57023;SDS011;42916;54.346;18.562;2023-03-17T12:00:56;14.70;;;8.70;;
57023;SDS011;42916;54.346;18.562;2023-03-17T12:06:24;12.50;;;6.60;;
57023;SDS011;42916;54.346;18.562;2023-03-17T12:11:43;20.40;;;9.10;;
57023;SDS011;42916;54.346;18.562;2023-03-17T12:16:51;16.20;;;9.00;;
57023;SDS011;42916;54.346;18.562;2023-03-17T12:19:26;14.70;;;7.70;;
57023;SDS011;42916;54.346;18.562;2023-03-17T12:22:05;15.30;;;7.90;;
57023;SDS011;42916;54.346;18.562;2023-03-17T12:27:31;12.10;;;7.70;;
57023;SDS011;42916;54.346;18.562;2023-03-17T12:30:22;17.10;;;9.00;;
57023;SDS011;42916;54.346;18.562;2023-03-17T12:33:00;19.60;;;10.10;;
57023;SDS011;42916;54.346;18.562;2023-03-17T12:35:45;17.30;;;10.10;;
57023;SDS011;42916;54.346;18.562;2023-03-17T12:38:15;21.00;;;11.20;;
57023;SDS011;42916;54.346;18.562;2023-03-17T12:40:54;19.90;;;10.10;;
57023;SDS011;42916;54.346;18.562;2023-03-17T12:49:11;21.30;;;10.60;;
57023;SDS011;42916;54.346;18.562;2023-03-17T12:54:34;19.10;;;10.40;;
57023;SDS011;42916;54.346;18.562;2023-03-17T12:57:04;18.80;;;10.10;;
57023;SDS011;42916;54.346;18.562;2023-03-17T12:59:40;17.50;;;10.10;;
57023;SDS011;42916;54.346;18.562;2023-03-17T13:04:55;16.90;;;10.60;;
57023;SDS011;42916;54.346;18.562;2023-03-17T13:07:30;20.80;;;10.80;;
57023;SDS011;42916;54.346;18.562;2023-03-17T13:10:11;20.90;;;10.60;;
57023;SDS011;42916;54.346;18.562;2023-03-17T13:17:50;17.60;;;8.80;;
57023;SDS011;42916;54.346;18.562;2023-03-17T13:20:36;15.60;;;9.50;;
57023;SDS011;42916;54.346;18.562;2023-03-17T13:43:56;17.00;;;9.70;;
57023;SDS011;42916;54.346;18.562;2023-03-17T13:46:37;15.60;;;8.80;;
57023;SDS011;42916;54.346;18.562;2023-03-17T13:54:32;20.10;;;9.00;;
57023;SDS011;42916;54.346;18.562;2023-03-17T14:02:34;18.00;;;9.50;;
57023;SDS011;42916;54.346;18.562;2023-03-17T14:05:04;16.00;;;10.00;;
57023;SDS011;42916;54.346;18.562;2023-03-17T14:07:44;16.20;;;10.40;;
57023;SDS011;42916;54.346;18.562;2023-03-17T14:10:21;17.60;;;10.10;;
57023;SDS011;42916;54.346;18.562;2023-03-17T14:15:55;18.10;;;10.40;;
57023;SDS011;42916;54.346;18.562;2023-03-17T14:18:33;16.10;;;8.90;;
57023;SDS011;42916;54.346;18.562;2023-03-17T14:21:00;16.70;;;10.20;;
57023;SDS011;42916;54.346;18.562;2023-03-17T14:23:31;15.40;;;9.80;;
57023;SDS011;42916;54.346;18.562;2023-03-17T14:26:02;12.90;;;8.90;;
57023;SDS011;42916;54.346;18.562;2023-03-17T14:28:30;17.20;;;9.30;;
57023;SDS011;42916;54.346;18.562;2023-03-17T14:31:00;19.30;;;10.60;;
57023;SDS011;42916;54.346;18.562;2023-03-17T14:33:29;19.50;;;9.40;;
57023;SDS011;42916;54.346;18.562;2023-03-17T14:35:58;17.60;;;9.30;;
57023;SDS011;42916;54.346;18.562;2023-03-17T14:38:31;15.10;;;8.90;;
57023;SDS011;42916;54.346;18.562;2023-03-17T14:43:30;18.40;;;9.30;;
57023;SDS011;42916;54.346;18.562;2023-03-17T14:48:32;20.10;;;8.80;;
57023;SDS011;42916;54.346;18.562;2023-03-17T14:51:04;15.10;;;9.20;;
57023;SDS011;42916;54.346;18.562;2023-03-17T14:53:34;11.50;;;7.50;;
57023;SDS011;42916;54.346;18.562;2023-03-17T14:56:05;14.00;;;8.90;;
57023;SDS011;42916;54.346;18.562;2023-03-17T14:58:36;16.00;;;7.90;;
57023;SDS011;42916;54.346;18.562;2023-03-17T15:04:11;14.90;;;8.70;;
57023;SDS011;42916;54.346;18.562;2023-03-17T15:07:00;14.20;;;8.50;;
57023;SDS011;42916;54.346;18.562;2023-03-17T15:09:36;20.10;;;9.60;;
57023;SDS011;42916;54.346;18.562;2023-03-17T15:12:16;16.20;;;8.50;;
57023;SDS011;42916;54.346;18.562;2023-03-17T15:14:54;16.30;;;9.60;;
57023;SDS011;42916;54.346;18.562;2023-03-17T15:17:32;17.50;;;9.10;;
57023;SDS011;42916;54.346;18.562;2023-03-17T15:20:03;15.60;;;9.10;;
57023;SDS011;42916;54.346;18.562;2023-03-17T15:27:43;15.60;;;9.20;;
57023;SDS011;42916;54.346;18.562;2023-03-17T15:30:11;13.60;;;8.10;;
57023;SDS011;42916;54.346;18.562;2023-03-17T15:32:39;14.10;;;8.10;;
57023;SDS011;42916;54.346;18.562;2023-03-17T15:35:06;14.30;;;8.20;;
57023;SDS011;42916;54.346;18.562;2023-03-17T15:37:37;16.90;;;8.60;;
57023;SDS011;42916;54.346;18.562;2023-03-17T15:40:04;18.60;;;8.90;;
57023;SDS011;42916;54.346;18.562;2023-03-17T15:42:32;16.80;;;8.40;;
57023;SDS011;42916;54.346;18.562;2023-03-17T15:45:01;12.20;;;7.10;;
57023;SDS011;42916;54.346;18.562;2023-03-17T15:47:33;15.60;;;8.70;;
57023;SDS011;42916;54.346;18.562;2023-03-17T15:50:24;15.80;;;8.00;;
57023;SDS011;42916;54.346;18.562;2023-03-17T15:52:54;16.30;;;7.80;;
57023;SDS011;42916;54.346;18.562;2023-03-17T15:55:22;17.10;;;8.40;;
57023;SDS011;42916;54.346;18.562;2023-03-17T15:57:56;19.70;;;9.10;;
57023;SDS011;42916;54.346;18.562;2023-03-17T16:00:24;17.20;;;9.10;;
57023;SDS011;42916;54.346;18.562;2023-03-17T16:02:55;15.80;;;8.70;;
57023;SDS011;42916;54.346;18.562;2023-03-17T16:05:25;14.70;;;8.00;;
57023;SDS011;42916;54.346;18.562;2023-03-17T16:07:55;15.90;;;8.00;;
57023;SDS011;42916;54.346;18.562;2023-03-17T16:10:23;15.10;;;8.70;;
57023;SDS011;42916;54.346;18.562;2023-03-17T16:15:21;17.20;;;8.40;;
57023;SDS011;42916;54.346;18.562;2023-03-17T16:17:50;18.00;;;8.80;;
57023;SDS011;42916;54.346;18.562;2023-03-17T16:20:29;15.60;;;8.90;;
57023;SDS011;42916;54.346;18.562;2023-03-17T16:23:06;17.60;;;9.60;;
57023;SDS011;42916;54.346;18.562;2023-03-17T16:25:38;17.40;;;9.70;;
57023;SDS011;42916;54.346;18.562;2023-03-17T16:28:15;15.10;;;8.10;;
57023;SDS011;42916;54.346;18.562;2023-03-17T16:30:45;22.50;;;9.60;;
57023;SDS011;42916;54.346;18.562;2023-03-17T16:33:17;19.10;;;9.20;;